Time;durP1;ratioP1;P1;durP2;ratioP2;P2;SDS_P1;SDS_P2;PMS_P1;PMS_P2;Temp;Humidity;BMP_temperature;BMP_pressure;BME280_temperature;BME280_humidity;BME280_pressure;Samples;Min_cycle;Max_cycle;Signal;HPM_P1;HPM_P2
2023/09/13 00:01:32;;;;;;;1999.90;999.90;;;18.20;75.00;;;;;;5048553;28;20107;-78
2023/09/13 00:03:58;;;;;;;1999.90;999.90;;;18.20;74.90;;;;;;5045211;28;20044;-77
2023/09/13 00:06:24;;;;;;;1999.90;999.90;;;18.20;74.30;;;;;;5044856;28;20029;-76
2023/09/13 00:08:50;;;;;;;1999.90;999.90;;;18.20;74.40;;;;;;5039022;28;20034;-77
2023/09/13 00:11:16;;;;;;;1999.90;999.90;;;18.20;73.60;;;;;;5041159;28;20078;-77
2023/09/13 00:13:41;;;;;;;1999.90;999.90;;;18.20;73.70;;;;;;5043214;28;20041;-78
2023/09/13 00:16:07;;;;;;;1999.90;999.90;;;18.10;74.10;;;;;;5038995;28;20064;-77
2023/09/13 00:18:33;;;;;;;1999.90;999.90;;;18.10;73.50;;;;;;5041115;28;20048;-77
2023/09/13 00:20:59;;;;;;;1999.90;999.90;;;18.10;73.60;;;;;;5021483;28;20033;-77
2023/09/13 00:23:24;;;;;;;1999.90;999.90;;;18.10;73.30;;;;;;5043185;28;20029;-76
2023/09/13 00:25:50;;;;;;;1999.90;999.90;;;18.10;72.80;;;;;;5039497;28;20037;-77
2023/09/13 00:28:16;;;;;;;1999.90;999.90;;;18.10;73.10;;;;;;5044750;28;20044;-77
2023/09/13 00:30:42;;;;;;;1999.90;999.90;;;18.10;72.90;;;;;;5042962;28;20053;-77
2023/09/13 00:33:07;;;;;;;1999.90;999.90;;;18.00;72.80;;;;;;5044486;28;20040;-77
2023/09/13 00:35:33;;;;;;;1999.90;999.90;;;18.00;73.10;;;;;;5042531;28;20029;-77
2023/09/13 00:37:59;;;;;;;1999.90;999.90;;;17.90;73.70;;;;;;5037607;28;20030;-77
2023/09/13 00:40:24;;;;;;;1999.90;999.90;;;17.80;74.00;;;;;;5039110;28;20496;-77
2023/09/13 00:42:50;;;;;;;1999.90;999.90;;;17.80;74.30;;;;;;5042608;28;20033;-76
2023/09/13 00:45:16;;;;;;;1999.90;999.90;;;17.80;74.10;;;;;;5044540;28;20051;-77
2023/09/13 00:47:42;;;;;;;1999.90;999.90;;;18.00;73.50;;;;;;5025756;28;20090;-77
2023/09/13 00:50:10;;;;;;;1999.90;999.90;;;18.00;72.80;;;;;;5042438;28;20037;-77
2023/09/13 00:52:37;;;;;;;1999.90;999.90;;;18.00;73.40;;;;;;5044195;28;20499;-76
2023/09/13 00:55:05;;;;;;;1999.90;999.90;;;18.10;72.80;;;;;;5037243;28;20037;-77
2023/09/13 00:57:32;;;;;;;1999.90;999.90;;;18.10;72.70;;;;;;5033141;28;20030;-77
2023/09/13 00:59:58;;;;;;;1999.90;999.90;;;18.10;73.40;;;;;;5034595;28;20112;-77
2023/09/13 01:02:24;;;;;;;1999.90;999.90;;;18.00;74.10;;;;;;5038811;28;20116;-77
2023/09/13 01:04:50;;;;;;;1999.90;999.90;;;17.90;74.60;;;;;;5041786;28;20457;-76
2023/09/13 01:07:16;;;;;;;1999.90;999.90;;;17.90;74.50;;;;;;5033194;28;20623;-76
2023/09/13 01:09:42;;;;;;;1999.90;999.90;;;17.80;74.90;;;;;;5035475;28;20055;-77
2023/09/13 01:12:08;;;;;;;1999.90;999.90;;;17.70;75.10;;;;;;5039880;28;20100;-77
2023/09/13 01:14:35;;;;;;;1999.90;999.90;;;17.70;75.20;;;;;;5032998;28;20056;-77
2023/09/13 01:17:14;;;;;;;1999.90;999.90;;;17.70;75.30;;;;;;5033155;28;20029;-78
2023/09/13 01:19:54;;;;;;;1999.90;999.90;;;17.60;75.60;;;;;;5036593;28;20128;-77
2023/09/13 01:22:41;;;;;;;1999.90;999.90;;;17.70;76.60;;;;;;5031060;28;20376;-77
2023/09/13 01:25:28;;;;;;;1999.90;999.90;;;17.60;78.00;;;;;;5031624;28;21778;-77
2023/09/13 01:28:22;;;;;;;1999.90;999.90;;;17.50;77.00;;;;;;5032047;28;20033;-77
2023/09/13 01:30:49;;;;;;;1999.90;999.90;;;17.60;77.10;;;;;;5033020;28;20029;-78
2023/09/13 01:33:14;;;;;;;1999.90;999.90;;;17.50;77.60;;;;;;5034345;28;20056;-77
2023/09/13 01:35:40;;;;;;;1999.90;999.90;;;17.50;78.10;;;;;;5039325;28;20030;-76
2023/09/13 01:38:06;;;;;;;1999.90;999.90;;;17.40;78.80;;;;;;5039222;28;20026;-77
2023/09/13 01:40:35;;;;;;;1999.90;999.90;;;17.50;78.90;;;;;;5035510;28;20082;-76
2023/09/13 01:43:03;;;;;;;1999.90;999.90;;;17.50;78.80;;;;;;5020016;28;20033;-77
2023/09/13 01:45:32;;;;;;;1999.90;999.90;;;17.50;79.10;;;;;;5040702;28;20120;-77
2023/09/13 01:47:59;;;;;;;1999.90;999.90;;;17.50;79.50;;;;;;5039620;28;20037;-77
2023/09/13 01:50:25;;;;;;;1999.90;999.90;;;17.40;79.70;;;;;;5038985;28;20450;-77
2023/09/13 01:52:51;;;;;;;1999.90;999.90;;;17.50;80.40;;;;;;5041979;28;20132;-78
2023/09/13 01:55:17;;;;;;;1999.90;999.90;;;17.50;80.50;;;;;;5039871;28;20116;-77
2023/09/13 01:57:43;;;;;;;1999.90;999.90;;;17.50;80.40;;;;;;5034871;28;20372;-77
2023/09/13 02:00:09;;;;;;;1999.90;999.90;;;17.40;80.80;;;;;;5038034;28;20022;-75
2023/09/13 02:02:34;;;;;;;1999.90;999.90;;;17.40;81.00;;;;;;5035726;28;20044;-77
2023/09/13 02:05:00;;;;;;;1999.90;999.90;;;17.40;81.40;;;;;;5042687;28;20030;-76
2023/09/13 02:07:26;;;;;;;1999.90;999.90;;;17.40;81.60;;;;;;5038956;28;20033;-77
2023/09/13 02:09:52;;;;;;;1999.90;999.90;;;17.40;81.90;;;;;;5024286;28;20486;-77
2023/09/13 02:12:18;;;;;;;1999.90;999.90;;;17.40;81.80;;;;;;5041151;28;20029;-77
2023/09/13 02:14:44;;;;;;;1999.90;999.90;;;17.40;82.20;;;;;;5038052;28;21168;-77
2023/09/13 02:17:09;;;;;;;1999.90;999.90;;;17.40;82.50;;;;;;5036120;28;20040;-76
2023/09/13 02:19:36;;;;;;;1999.90;999.90;;;17.30;82.60;;;;;;5036372;28;20039;-77
2023/09/13 02:22:02;;;;;;;1999.90;999.90;;;17.40;82.60;;;;;;5038507;28;20029;-77
2023/09/13 02:24:28;;;;;;;1999.90;999.90;;;17.40;82.60;;;;;;5038715;28;20199;-77
2023/09/13 02:26:57;;;;;;;1999.90;999.90;;;17.30;83.20;;;;;;5039100;28;20167;-77
2023/09/13 02:29:23;;;;;;;1999.90;999.90;;;17.40;82.90;;;;;;5037324;28;20053;-77
2023/09/13 02:31:49;;;;;;;1999.90;999.90;;;17.30;83.00;;;;;;5032719;28;20029;-77
2023/09/13 02:34:15;;;;;;;1999.90;999.90;;;17.30;83.00;;;;;;5040923;28;20047;-76
2023/09/13 02:36:41;;;;;;;1999.90;999.90;;;17.30;83.20;;;;;;5037672;28;20476;-77
2023/09/13 02:39:31;;;;;;;1999.90;999.90;;;17.30;83.80;;;;;;5042113;28;20044;-78
2023/09/13 02:41:57;;;;;;;1999.90;999.90;;;17.20;84.00;;;;;;5033580;28;20057;-76
2023/09/13 02:44:22;;;;;;;1999.90;999.90;;;17.20;84.30;;;;;;5037480;28;20091;-77
2023/09/13 02:46:48;;;;;;;1999.90;999.90;;;17.20;84.30;;;;;;5039666;28;20029;-77
2023/09/13 02:49:13;;;;;;;1999.90;999.90;;;17.30;84.60;;;;;;5035371;28;20072;-77
2023/09/13 02:51:39;;;;;;;1999.90;999.90;;;17.30;84.40;;;;;;5035278;28;20041;-77
2023/09/13 02:54:05;;;;;;;1999.90;999.90;;;17.30;84.40;;;;;;5035575;28;20075;-77
2023/09/13 02:56:31;;;;;;;1999.90;999.90;;;17.30;84.50;;;;;;5038204;28;20061;-77
2023/09/13 02:58:56;;;;;;;1999.90;999.90;;;17.20;84.80;;;;;;5039936;28;20565;-77
2023/09/13 03:01:22;;;;;;;1999.90;999.90;;;17.30;84.80;;;;;;5032195;28;20029;-77
2023/09/13 03:03:48;;;;;;;1999.90;999.90;;;17.20;84.70;;;;;;5040341;28;20083;-77
2023/09/13 03:06:15;;;;;;;1999.90;999.90;;;17.30;84.80;;;;;;5023844;28;20040;-77
2023/09/13 03:08:41;;;;;;;1999.90;999.90;;;17.20;85.00;;;;;;5040621;28;20063;-77
2023/09/13 03:11:15;;;;;;;1999.90;999.90;;;17.20;84.90;;;;;;5036654;28;20044;-77
2023/09/13 03:13:41;;;;;;;1999.90;999.90;;;17.30;85.00;;;;;;5044250;28;20112;-77
2023/09/13 03:16:15;;;;;;;1999.90;999.90;;;17.30;84.70;;;;;;5040550;28;20029;-76
2023/09/13 03:18:41;;;;;;;1999.90;999.90;;;17.30;84.70;;;;;;5038520;28;20017;-77
2023/09/13 03:21:08;;;;;;;1999.90;999.90;;;17.30;84.60;;;;;;5038465;28;20036;-77
2023/09/13 03:23:37;;;;;;;1999.90;999.90;;;17.30;84.70;;;;;;5039318;28;20079;-77
2023/09/13 03:26:14;;;;;;;1999.90;999.90;;;17.30;84.90;;;;;;5021559;28;20128;-77
2023/09/13 03:28:42;;;;;;;1999.90;999.90;;;17.10;85.30;;;;;;5041814;28;20107;-76
2023/09/13 03:31:12;;;;;;;1999.90;999.90;;;17.10;85.50;;;;;;5043549;28;20030;-77
2023/09/13 03:33:39;;;;;;;;;;;17.10;85.80;;;;;;5043205;28;20148;-77
2023/09/13 03:36:06;;;;;;;1999.90;999.90;;;17.10;85.80;;;;;;5037096;28;19913;-77
2023/09/13 03:38:32;;;;;;;1999.90;999.90;;;17.10;86.00;;;;;;5046615;28;20120;-77
2023/09/13 03:40:58;;;;;;;1999.90;999.90;;;17.00;85.90;;;;;;5039078;28;20104;-77
2023/09/13 03:43:23;;;;;;;1999.90;999.90;;;16.90;86.40;;;;;;5044520;28;20395;-77
2023/09/13 03:45:49;;;;;;;1999.90;999.90;;;16.80;86.80;;;;;;5042156;28;20021;-77
2023/09/13 03:48:15;;;;;;;1999.90;999.90;;;16.80;87.10;;;;;;5073096;28;20372;-77
2023/09/13 03:50:40;;;;;;;1999.90;999.90;;;16.70;87.20;;;;;;5043448;28;20043;-77
2023/09/13 03:53:06;;;;;;;1999.90;999.90;;;16.60;87.60;;;;;;5041441;28;20041;-77
2023/09/13 03:55:31;;;;;;;1999.90;999.90;;;16.50;88.30;;;;;;5038881;28;20037;-77
2023/09/13 03:57:57;;;;;;;1999.90;999.90;;;16.50;88.70;;;;;;5041520;28;20558;-77
2023/09/13 04:00:23;;;;;;;1999.90;999.90;;;16.50;88.80;;;;;;5036148;28;20110;-77
2023/09/13 04:02:49;;;;;;;1999.90;999.90;;;16.40;89.10;;;;;;5027540;28;20029;-77
2023/09/13 04:05:14;;;;;;;1999.90;999.90;;;16.40;89.30;;;;;;5041004;28;20041;-77
2023/09/13 04:07:40;;;;;;;1999.90;999.90;;;16.40;89.20;;;;;;5042721;28;20638;-77
2023/09/13 04:10:06;;;;;;;1999.90;999.90;;;16.40;89.50;;;;;;5044028;28;20025;-77
2023/09/13 04:12:32;;;;;;;1999.90;999.90;;;16.30;89.90;;;;;;5034923;28;20036;-77
2023/09/13 04:14:57;;;;;;;1999.90;999.90;;;16.30;89.90;;;;;;5032461;28;20030;-77
2023/09/13 04:17:23;;;;;;;1999.90;999.90;;;16.30;90.30;;;;;;5026785;28;20037;-77
2023/09/13 04:19:49;;;;;;;1999.90;999.90;;;16.30;90.20;;;;;;5042955;28;20029;-77
2023/09/13 04:22:16;;;;;;;1999.90;999.90;;;16.20;90.10;;;;;;5022704;28;20036;-72
2023/09/13 04:24:42;;;;;;;1999.90;999.90;;;16.10;90.00;;;;;;5041854;28;20047;-71
2023/09/13 04:27:08;;;;;;;1999.90;999.90;;;16.10;90.10;;;;;;5041712;28;20028;-71
2023/09/13 04:29:34;;;;;;;1999.90;999.90;;;16.10;90.40;;;;;;5039907;28;20500;-72
2023/09/13 04:31:59;;;;;;;1999.90;999.90;;;16.00;90.30;;;;;;5044878;28;20041;-74
2023/09/13 04:34:25;;;;;;;1999.90;999.90;;;15.90;90.50;;;;;;5031726;28;20507;-77
2023/09/13 04:36:51;;;;;;;1999.90;999.90;;;15.80;90.60;;;;;;5033362;28;20483;-77
2023/09/13 04:39:17;;;;;;;1999.90;999.90;;;15.80;90.60;;;;;;5038948;28;20035;-83
2023/09/13 04:41:42;;;;;;;1999.90;999.90;;;15.80;90.50;;;;;;5036777;28;20496;-75
2023/09/13 04:44:08;;;;;;;1999.90;999.90;;;15.80;90.50;;;;;;5036261;28;20021;-73
2023/09/13 04:46:34;;;;;;;1999.90;999.90;;;15.80;90.40;;;;;;5034915;28;20442;-74
2023/09/13 04:48:59;;;;;;;1999.90;999.90;;;15.80;90.80;;;;;;5037158;28;20135;-73
2023/09/13 04:51:25;;;;;;;1999.90;999.90;;;15.80;90.60;;;;;;5036561;28;20686;-73
2023/09/13 04:53:50;;;;;;;1999.90;999.90;;;15.70;90.60;;;;;;5038517;28;20513;-73
2023/09/13 04:56:16;;;;;;;1999.90;999.90;;;15.70;90.70;;;;;;5041657;28;20859;-74
2023/09/13 04:58:42;;;;;;;1999.90;999.90;;;15.70;90.80;;;;;;5039350;28;20506;-73
2023/09/13 05:01:08;;;;;;;1999.90;999.90;;;15.80;90.90;;;;;;5037256;28;20056;-73
2023/09/13 05:03:33;;;;;;;1999.90;999.90;;;15.80;90.90;;;;;;5038558;28;20106;-74
2023/09/13 05:05:59;;;;;;;1999.90;999.90;;;15.70;90.80;;;;;;5035522;28;20059;-73
2023/09/13 05:08:24;;;;;;;1999.90;999.90;;;15.80;90.80;;;;;;5036451;28;20034;-73
2023/09/13 05:10:52;;;;;;;1999.90;999.90;;;15.80;90.80;;;;;;5035740;28;20475;-73
2023/09/13 05:13:17;;;;;;;1999.90;999.90;;;15.80;90.80;;;;;;5031553;28;20029;-72
2023/09/13 05:15:44;;;;;;;1999.90;999.90;;;15.80;90.80;;;;;;5031075;28;20115;-73
2023/09/13 05:18:10;;;;;;;1999.90;999.90;;;15.90;90.60;;;;;;5037833;28;20076;-73
2023/09/13 05:20:36;;;;;;;1999.90;999.90;;;15.90;90.50;;;;;;5033600;28;20030;-72
2023/09/13 05:23:03;;;;;;;1999.90;999.90;;;16.10;90.40;;;;;;5033709;28;20038;-74
2023/09/13 05:25:28;;;;;;;1999.90;999.90;;;16.20;90.20;;;;;;5033569;28;20036;-72
2023/09/13 05:27:54;;;;;;;1999.90;999.90;;;16.30;90.20;;;;;;5032153;28;20087;-74
2023/09/13 05:30:22;;;;;;;1999.90;999.90;;;16.50;90.20;;;;;;5036779;28;20037;-78
2023/09/13 05:32:49;;;;;;;1999.90;999.90;;;16.60;89.80;;;;;;5031704;28;20029;-80
2023/09/13 05:35:16;;;;;;;1999.90;999.90;;;16.80;88.80;;;;;;5036084;28;20051;-77
2023/09/13 05:37:42;;;;;;;1999.90;999.90;;;16.70;88.70;;;;;;5033650;28;20109;-81
2023/09/13 05:40:08;;;;;;;1999.90;999.90;;;16.70;88.70;;;;;;5017779;28;20116;-79
2023/09/13 05:42:34;;;;;;;1999.90;999.90;;;16.60;88.80;;;;;;5022747;28;20080;-79
2023/09/13 05:45:03;;;;;;;1999.90;999.90;;;16.60;89.10;;;;;;5035215;28;20116;-79
2023/09/13 05:47:29;;;;;;;1999.90;999.90;;;16.50;89.70;;;;;;5035357;28;20458;-80
2023/09/13 05:49:55;;;;;;;1999.90;999.90;;;16.50;89.30;;;;;;5031549;28;20099;-81
2023/09/13 05:52:20;;;;;;;1999.90;999.90;;;16.50;89.50;;;;;;5018195;28;20040;-79
2023/09/13 05:54:46;;;;;;;1999.90;999.90;;;16.50;89.40;;;;;;5037524;28;20044;-80
2023/09/13 05:57:11;;;;;;;1999.90;999.90;;;16.50;89.10;;;;;;5038210;28;20052;-79
2023/09/13 05:59:39;;;;;;;1999.90;999.90;;;16.60;88.90;;;;;;5033194;28;20051;-79
2023/09/13 06:02:06;;;;;;;1999.90;999.90;;;16.70;88.60;;;;;;5050034;28;20479;-79
2023/09/13 06:04:32;;;;;;;1999.90;999.90;;;16.80;88.30;;;;;;5035441;28;20083;-80
2023/09/13 06:06:58;;;;;;;1999.90;999.90;;;17.00;87.90;;;;;;5029565;28;20033;-79
2023/09/13 06:09:23;;;;;;;1999.90;999.90;;;17.10;87.80;;;;;;5032140;28;20037;-79
2023/09/13 06:11:49;;;;;;;1999.90;999.90;;;17.30;87.20;;;;;;5034221;28;20033;-78
2023/09/13 06:14:16;;;;;;;1999.90;999.90;;;17.50;86.20;;;;;;5033970;28;20030;-81
2023/09/13 06:16:42;;;;;;;1999.90;999.90;;;17.50;86.50;;;;;;5036645;28;20411;-82
2023/09/13 06:19:07;;;;;;;1999.90;999.90;;;17.40;86.00;;;;;;5036506;28;20040;-79
2023/09/13 06:21:33;;;;;;;1999.90;999.90;;;17.40;86.00;;;;;;5036867;28;20052;-79
2023/09/13 06:23:59;;;;;;;1999.90;999.90;;;17.40;85.30;;;;;;5034141;28;20041;-79
2023/09/13 06:26:24;;;;;;;1999.90;999.90;;;17.50;85.10;;;;;;5028802;28;20034;-79
2023/09/13 06:28:50;;;;;;;1999.90;999.90;;;17.60;86.30;;;;;;5031478;28;20452;-79
2023/09/13 06:31:16;;;;;;;1999.90;999.90;;;17.70;85.50;;;;;;5032273;28;20037;-80
2023/09/13 06:33:42;;;;;;;1999.90;999.90;;;17.70;84.60;;;;;;5029100;28;20030;-79
2023/09/13 06:36:08;;;;;;;1999.90;999.90;;;17.80;85.10;;;;;;5035035;28;20059;-80
2023/09/13 06:38:34;;;;;;;1999.90;999.90;;;17.60;85.00;;;;;;5032964;28;20041;-79
2023/09/13 06:40:59;;;;;;;1999.90;999.90;;;17.70;85.50;;;;;;5028605;28;20100;-79
2023/09/13 06:43:25;;;;;;;1999.90;999.90;;;17.60;85.80;;;;;;5030147;28;20040;-80
2023/09/13 06:45:50;;;;;;;1999.90;999.90;;;17.70;86.30;;;;;;5035441;28;20029;-79
2023/09/13 06:48:18;;;;;;;1999.90;999.90;;;17.90;85.80;;;;;;5033673;28;20029;-79
2023/09/13 06:50:44;;;;;;;1999.90;999.90;;;17.90;85.50;;;;;;5038053;28;20064;-79
2023/09/13 06:53:10;;;;;;;1999.90;999.90;;;18.10;85.30;;;;;;5040297;28;20049;-77
2023/09/13 06:55:36;;;;;;;1999.90;999.90;;;18.20;85.10;;;;;;5043620;28;20461;-79
2023/09/13 06:58:05;;;;;;;1999.90;999.90;;;18.20;86.30;;;;;;5021211;28;20063;-79
2023/09/13 07:00:31;;;;;;;1999.90;999.90;;;18.40;85.10;;;;;;5044911;28;20029;-80
2023/09/13 07:02:57;;;;;;;1999.90;999.90;;;18.40;84.30;;;;;;5034822;28;20503;-80
2023/09/13 07:05:22;;;;;;;1999.90;999.90;;;18.60;84.00;;;;;;5039020;28;20112;-79
2023/09/13 07:07:48;;;;;;;1999.90;999.90;;;18.50;83.60;;;;;;5014927;28;20466;-79
2023/09/13 07:10:13;;;;;;;1999.90;999.90;;;18.70;82.90;;;;;;5031846;28;20037;-79
2023/09/13 07:12:39;;;;;;;1999.90;999.90;;;18.90;83.00;;;;;;5033088;28;20056;-79
2023/09/13 07:15:07;;;;;;;1999.90;999.90;;;19.00;82.20;;;;;;5032419;28;20087;-80
2023/09/13 07:17:33;;;;;;;1999.90;999.90;;;19.10;80.50;;;;;;5038913;28;20030;-80
2023/09/13 07:19:59;;;;;;;1999.90;999.90;;;19.10;81.40;;;;;;5016499;28;20032;-80
2023/09/13 07:22:24;;;;;;;1999.90;999.90;;;19.20;80.30;;;;;;5019425;28;20494;-80
2023/09/13 07:24:51;;;;;;;1999.90;999.90;;;19.50;79.50;;;;;;5032120;28;20679;-76
2023/09/13 07:27:16;;;;;;;1999.90;999.90;;;19.70;78.60;;;;;;5039842;28;20048;-77
2023/09/13 07:29:42;;;;;;;1999.90;999.90;;;19.70;77.60;;;;;;5042509;28;20048;-79
2023/09/13 07:32:08;;;;;;;1999.90;999.90;;;19.90;77.30;;;;;;5031079;28;20045;-77
2023/09/13 07:34:34;;;;;;;1999.90;999.90;;;20.00;77.80;;;;;;5036505;28;20061;-77
2023/09/13 07:36:59;;;;;;;1999.90;999.90;;;20.10;75.50;;;;;;5029429;28;20076;-75
2023/09/13 07:39:25;;;;;;;1999.90;999.90;;;20.10;75.20;;;;;;5017039;28;20167;-76
2023/09/13 07:41:51;;;;;;;1999.90;999.90;;;20.00;75.30;;;;;;5034811;28;20471;-81
2023/09/13 07:44:17;;;;;;;1999.90;999.90;;;19.90;74.70;;;;;;5030018;28;20030;-77
2023/09/13 07:46:43;;;;;;;1999.90;999.90;;;19.80;73.70;;;;;;5026849;28;20487;-78
2023/09/13 07:49:08;;;;;;;1999.90;999.90;;;20.00;73.80;;;;;;5027083;28;20064;-78
2023/09/13 07:51:34;;;;;;;1999.90;999.90;;;20.00;74.00;;;;;;5031911;28;20395;-80
2023/09/13 07:54:07;;;;;;;1999.90;999.90;;;20.10;73.20;;;;;;5035983;28;20037;-75
2023/09/13 07:56:37;;;;;;;1999.90;999.90;;;20.10;72.70;;;;;;5035905;28;20717;-78
2023/09/13 07:59:03;;;;;;;1999.90;999.90;;;20.00;72.70;;;;;;5033316;28;20062;-77
2023/09/13 08:01:29;;;;;;;1999.90;999.90;;;19.90;74.20;;;;;;5030758;28;20026;-78
2023/09/13 08:03:55;;;;;;;1999.90;999.90;;;20.00;73.90;;;;;;5030864;28;20030;-78
2023/09/13 08:06:22;;;;;;;1999.90;999.90;;;19.70;73.00;;;;;;5039242;28;20029;-78
2023/09/13 08:08:48;;;;;;;1999.90;999.90;;;19.60;73.50;;;;;;5037043;28;20041;-78
2023/09/13 08:11:14;;;;;;;1999.90;999.90;;;19.60;74.00;;;;;;5035655;28;20037;-78
2023/09/13 08:13:40;;;;;;;1999.90;999.90;;;19.60;74.00;;;;;;5038159;28;20037;-78
2023/09/13 08:16:06;;;;;;;1999.90;999.90;;;19.70;73.40;;;;;;5036003;28;20075;-77
2023/09/13 08:18:32;;;;;;;1999.90;999.90;;;19.60;73.90;;;;;;5037517;28;20116;-78
2023/09/13 08:20:57;;;;;;;1999.90;999.90;;;19.50;74.30;;;;;;5030932;28;20116;-80
2023/09/13 08:23:24;;;;;;;1999.90;999.90;;;19.60;74.70;;;;;;5039921;28;20033;-78
2023/09/13 08:25:49;;;;;;;1999.90;999.90;;;19.50;75.90;;;;;;5033442;28;20038;-78
2023/09/13 08:28:15;;;;;;;1999.90;999.90;;;19.40;76.50;;;;;;5034441;28;20167;-78
2023/09/13 08:30:40;;;;;;;1999.90;999.90;;;19.30;76.50;;;;;;5032173;28;20115;-78
2023/09/13 08:33:07;;;;;;;1999.90;999.90;;;19.20;77.70;;;;;;5023084;28;20037;-78
2023/09/13 08:35:32;;;;;;;1999.90;999.90;;;19.00;79.80;;;;;;5038058;28;20028;-78
2023/09/13 08:37:58;;;;;;;1999.90;999.90;;;19.00;80.10;;;;;;5038395;28;20026;-79
2023/09/13 08:40:24;;;;;;;1999.90;999.90;;;18.90;80.10;;;;;;5022523;28;20025;-78
2023/09/13 08:42:53;;;;;;;1999.90;999.90;;;18.90;79.90;;;;;;5034066;28;20033;-77
2023/09/13 08:45:20;;;;;;;1999.90;999.90;;;18.80;80.50;;;;;;5037595;28;20041;-78
2023/09/13 08:47:46;;;;;;;1999.90;999.90;;;18.80;80.20;;;;;;5037659;28;20034;-77
2023/09/13 08:50:14;;;;;;;1999.90;999.90;;;18.80;80.30;;;;;;5033926;28;20036;-78
2023/09/13 08:52:42;;;;;;;1999.90;999.90;;;18.80;80.20;;;;;;5037019;28;20038;-78
2023/09/13 08:55:09;;;;;;;1999.90;999.90;;;18.80;80.80;;;;;;5034876;28;20075;-78
2023/09/13 08:57:37;;;;;;;1999.90;999.90;;;18.90;81.90;;;;;;5036924;28;20029;-78
2023/09/13 09:00:07;;;;;;;1999.90;999.90;;;19.10;80.50;;;;;;5026338;28;20117;-77
2023/09/13 09:02:34;;;;;;;1999.90;999.90;;;19.10;78.50;;;;;;5035603;28;20037;-78
2023/09/13 09:05:00;;;;;;;1999.90;999.90;;;19.10;77.40;;;;;;5033831;28;20041;-77
2023/09/13 09:07:27;;;;;;;1999.90;999.90;;;19.10;78.80;;;;;;5037261;28;20069;-77
2023/09/13 09:09:54;;;;;;;1999.90;999.90;;;19.20;77.50;;;;;;5028662;28;20033;-77
2023/09/13 09:12:21;;;;;;;1999.90;999.90;;;19.40;79.10;;;;;;5031515;28;20044;-78
2023/09/13 09:14:49;;;;;;;1999.90;999.90;;;19.30;76.30;;;;;;5018950;28;20159;-77
2023/09/13 09:17:19;;;;;;;1999.90;999.90;;;19.40;79.00;;;;;;5037530;28;20030;-78
2023/09/13 09:19:45;;;;;;;1999.90;999.90;;;19.50;77.00;;;;;;5033243;28;20360;-77
2023/09/13 09:22:11;;;;;;;1999.90;999.90;;;19.40;76.50;;;;;;5034142;28;20291;-77
2023/09/13 09:24:39;;;;;;;1999.90;999.90;;;19.50;77.50;;;;;;5031686;28;20033;-78
2023/09/13 09:27:05;;;;;;;1999.90;999.90;;;19.30;77.80;;;;;;5037246;28;20033;-78
2023/09/13 09:29:37;;;;;;;1999.90;999.90;;;19.20;77.20;;;;;;5039981;28;20791;-78
2023/09/13 09:32:05;;;;;;;1999.90;999.90;;;19.10;79.30;;;;;;5029913;28;20115;-77
2023/09/13 09:34:31;;;;;;;1999.90;999.90;;;19.10;79.20;;;;;;5029366;28;20550;-79
2023/09/13 09:37:07;;;;;;;1999.90;999.90;;;19.10;80.20;;;;;;5034380;28;20148;-78
2023/09/13 09:39:42;;;;;;;1999.90;999.90;;;18.80;82.50;;;;;;5029678;28;20033;-78
2023/09/13 09:42:14;;;;;;;1999.90;999.90;;;18.90;84.20;;;;;;5032029;28;20120;-77
2023/09/13 09:44:40;;;;;;;1999.90;999.90;;;18.80;84.40;;;;;;5030480;28;20036;-77
2023/09/13 09:47:10;;;;;;;1999.90;999.90;;;18.80;86.10;;;;;;5031597;28;20022;-77
2023/09/13 09:49:36;;;;;;;1999.90;999.90;;;18.90;87.00;;;;;;5020008;28;20037;-76
2023/09/13 09:52:03;;;;;;;1999.90;999.90;;;18.90;87.10;;;;;;5031124;28;20808;-77
2023/09/13 09:54:29;;;;;;;1999.90;999.90;;;20.50;92.70;;;;;;5032239;28;20373;-78
2023/09/13 09:56:54;;;;;;;1999.90;999.90;;;21.10;99.90;;;;;;5036083;28;20036;-77
2023/09/13 09:59:20;;;;;;;1999.90;999.90;;;21.30;99.90;;;;;;5038407;28;20036;-76
2023/09/13 10:01:55;;;;;;;1999.90;999.90;;;21.60;99.90;;;;;;5031452;28;20044;-75
2023/09/13 10:04:22;;;;;;;1999.90;999.90;;;21.40;99.90;;;;;;5033849;28;20033;-73
2023/09/13 10:07:03;;;;;;;1999.90;999.90;;;21.30;99.90;;;;;;5036064;28;20037;-74
2023/09/13 10:09:40;;;;;;;1999.90;999.90;;;20.90;99.90;;;;;;5035459;28;20494;-75
2023/09/13 10:12:09;;;;;;;1999.90;999.90;;;20.90;99.90;;;;;;5038720;28;20076;-74
2023/09/13 10:14:45;;;;;;;1999.90;999.90;;;21.40;99.90;;;;;;5030744;28;20033;-74
2023/09/13 10:17:11;;;;;;;1999.90;999.90;;;21.40;99.90;;;;;;5034030;28;20041;-75
2023/09/13 10:19:37;;;;;;;1999.90;999.90;;;21.50;99.90;;;;;;5027920;28;20449;-75
2023/09/13 10:22:04;;;;;;;1999.90;999.90;;;21.70;99.90;;;;;;5029019;28;20484;-74
2023/09/13 10:24:39;;;;;;;1999.90;999.90;;;21.80;99.90;;;;;;5037822;28;20036;-74
2023/09/13 10:27:09;;;;;;;1999.90;999.90;;;21.90;99.90;;;;;;5031498;28;20792;-74
2023/09/13 10:29:51;;;;;;;1999.90;999.90;;;22.00;99.90;;;;;;5031993;28;20098;-74
2023/09/13 10:32:19;;;;;;;1999.90;999.90;;;21.80;99.90;;;;;;5033645;28;20037;-74
2023/09/13 10:34:52;;;;;;;1999.90;999.90;;;21.70;99.90;;;;;;5031374;28;20025;-74
2023/09/13 10:37:39;;;;;;;1999.90;999.90;;;21.60;99.90;;;;;;5028098;28;20025;-74
2023/09/13 10:40:15;;;;;;;1999.90;999.90;;;21.70;99.90;;;;;;5031987;28;20092;-74
2023/09/13 10:42:42;;;;;;;1999.90;999.90;;;22.00;99.90;;;;;;5026620;28;20033;-75
2023/09/13 10:45:09;;;;;;;1999.90;999.90;;;22.50;99.90;;;;;;5027247;28;20041;-74
2023/09/13 10:47:37;;;;;;;1999.90;999.90;;;22.80;99.90;;;;;;5032387;28;20033;-75
2023/09/13 10:50:05;;;;;;;1999.90;999.90;;;23.00;99.90;;;;;;5033803;28;20068;-75
2023/09/13 10:52:32;;;;;;;1999.90;999.90;;;23.00;99.90;;;;;;5033533;28;20095;-76
2023/09/13 10:55:00;;;;;;;1999.90;999.90;;;22.70;99.90;;;;;;5031098;28;20033;-74
2023/09/13 10:57:29;;;;;;;1999.90;999.90;;;22.90;99.90;;;;;;5027662;28;20484;-75
2023/09/13 10:59:55;;;;;;;1999.90;999.90;;;23.50;99.90;;;;;;5027364;28;20444;-74
2023/09/13 11:02:21;;;;;;;1999.90;999.90;;;23.50;99.90;;;;;;5034593;28;20055;-74
2023/09/13 11:04:48;;;;;;;1999.90;999.90;;;23.10;99.90;;;;;;5031871;28;20068;-73
2023/09/13 11:07:17;;;;;;;1999.90;999.90;;;23.40;99.90;;;;;;5028598;28;20037;-73
2023/09/13 11:09:45;;;;;;;1999.90;999.90;;;23.40;99.90;;;;;;5031659;28;20036;-72
2023/09/13 11:12:12;;;;;;;1999.90;999.90;;;23.10;99.90;;;;;;5030673;28;20096;-71
2023/09/13 11:14:42;;;;;;;1999.90;999.90;;;22.10;99.90;;;;;;5029468;28;20040;-72
2023/09/13 11:17:38;;;;;;;1999.90;999.90;;;21.90;99.90;;;;;;5032556;28;20052;-71
2023/09/13 11:20:27;;;;;;;1999.90;999.90;;;21.50;99.90;;;;;;5036597;28;20057;-72
2023/09/13 11:23:12;;;;;;;1999.90;999.90;;;21.60;99.90;;;;;;5034581;28;20042;-71
2023/09/13 11:25:52;;;;;;;1999.90;999.90;;;21.20;99.90;;;;;;5035299;28;20091;-71
2023/09/13 11:28:36;;;;;;;1999.90;999.90;;;21.50;99.90;;;;;;5032656;28;20072;-72
2023/09/13 11:31:04;;;;;;;1999.90;999.90;;;21.30;99.90;;;;;;5029422;28;20034;-71
2023/09/13 11:33:31;;;;;;;1999.90;999.90;;;20.70;99.90;;;;;;5031075;28;20052;-72
2023/09/13 11:35:58;;;;;;;1999.90;999.90;;;20.40;99.90;;;;;;5036609;28;20022;-72
2023/09/13 11:38:25;;;;;;;1999.90;999.90;;;19.70;99.90;;;;;;5014197;28;20128;-72
2023/09/13 11:40:57;;;;;;;1999.90;999.90;;;20.00;99.90;;;;;;5034410;28;20030;-73
2023/09/13 11:43:27;;;;;;;1999.90;999.90;;;20.10;99.90;;;;;;5033627;28;20565;-73
2023/09/13 11:45:57;;;;;;;1999.90;999.90;;;20.00;99.90;;;;;;5061518;28;20044;-73
2023/09/13 11:48:26;;;;;;;;;;;20.40;99.90;;;;;;5041352;28;20032;-74
2023/09/13 11:50:52;;;;;;;1999.90;999.90;;;20.70;99.90;;;;;;5044281;28;19955;-73
2023/09/13 11:53:24;;;;;;;1999.90;999.90;;;20.70;99.90;;;;;;5039038;28;20412;-74
2023/09/13 11:55:54;;;;;;;1999.90;999.90;;;20.90;99.90;;;;;;5035900;28;20033;-74
2023/09/13 11:58:30;;;;;;;1999.90;999.90;;;21.00;99.90;;;;;;5035997;28;20030;-74
2023/09/13 12:00:59;;;;;;;1999.90;999.90;;;21.10;99.90;;;;;;5036335;28;20275;-73
2023/09/13 12:03:29;;;;;;;1999.90;999.90;;;20.60;98.30;;;;;;5024619;28;20026;-80